createdAt,value
2022-11-16T00:00:22.635Z,9.28
2022-11-16T00:02:57.670Z,9.27
2022-11-16T00:05:30.464Z,9.26
2022-11-16T00:08:01.843Z,9.28
2022-11-16T00:10:34.598Z,9.28
2022-11-16T00:13:07.058Z,9.28
2022-11-16T00:15:41.920Z,9.27
2022-11-16T00:18:13.822Z,9.27
2022-11-16T00:20:46.714Z,9.27
2022-11-16T00:23:18.646Z,9.26
2022-11-16T00:25:50.952Z,9.27
2022-11-16T00:28:24.731Z,9.29
2022-11-16T00:31:02.438Z,9.29
2022-11-16T00:33:33.851Z,9.26
2022-11-16T00:36:09.750Z,9.24
2022-11-16T00:38:42.575Z,9.22
2022-11-16T00:41:17.727Z,9.20
2022-11-16T00:43:50.759Z,9.17
2022-11-16T00:46:23.881Z,9.15
2022-11-16T00:48:54.066Z,9.15
2022-11-16T00:51:27.311Z,9.16
2022-11-16T00:53:59.231Z,9.15
2022-11-16T00:56:31.107Z,9.15
2022-11-16T01:06:20.370Z,9.15
2022-11-16T01:08:50.909Z,9.13
2022-11-16T01:11:37.880Z,9.12
2022-11-16T01:14:11.197Z,9.11
2022-11-16T01:16:41.645Z,9.08
2022-11-16T01:19:12.108Z,9.02
2022-11-16T01:21:42.559Z,8.95
2022-11-16T01:24:12.973Z,8.91
2022-11-16T01:26:43.477Z,8.87
2022-11-16T01:29:14.145Z,8.82
2022-11-16T01:31:48.367Z,8.76
2022-11-16T01:34:18.820Z,8.72
2022-11-16T01:36:49.535Z,8.69
2022-11-16T01:39:21.085Z,8.67
2022-11-16T01:41:56.250Z,8.67
2022-11-16T01:45:07.104Z,8.66
2022-11-16T01:47:37.644Z,8.66
2022-11-16T01:50:12.389Z,8.66
2022-11-16T01:52:48.942Z,8.64
2022-11-16T01:55:20.735Z,8.65
2022-11-16T01:58:20.302Z,8.64
2022-11-16T02:00:54.816Z,8.61
2022-11-16T02:03:30.936Z,8.60
2022-11-16T02:06:23.917Z,8.60
2022-11-16T02:09:22.094Z,8.62
2022-11-16T02:12:12.771Z,8.64
2022-11-16T02:14:53.516Z,8.66
2022-11-16T02:17:30.376Z,8.69
2022-11-16T02:20:30.379Z,8.69
2022-11-16T02:23:15.554Z,8.69
2022-11-16T02:25:54.047Z,8.70
2022-11-16T02:28:34.399Z,8.72
2022-11-16T02:31:08.143Z,8.73
2022-11-16T02:33:40.391Z,8.74
2022-11-16T02:36:13.470Z,8.73
2022-11-16T02:38:48.992Z,8.73
2022-11-16T02:41:22.169Z,8.72
2022-11-16T02:43:56.096Z,8.71
2022-11-16T02:46:30.536Z,8.70
2022-11-16T02:49:03.852Z,8.70
2022-11-16T02:51:35.137Z,8.69
2022-11-16T02:54:13.055Z,8.69
2022-11-16T02:56:55.540Z,8.67
2022-11-16T02:59:32.166Z,8.64
2022-11-16T03:02:09.656Z,8.63
2022-11-16T03:04:42.359Z,8.61
2022-11-16T03:07:12.090Z,8.62
2022-11-16T03:09:44.188Z,8.61
2022-11-16T03:12:17.928Z,8.61
2022-11-16T03:14:51.612Z,8.60
2022-11-16T03:17:29.336Z,8.59
2022-11-16T03:20:02.805Z,8.59
2022-11-16T03:22:38.275Z,8.58
2022-11-16T03:25:09.887Z,8.58
2022-11-16T03:27:44.281Z,8.59
2022-11-16T03:30:22.302Z,8.60
2022-11-16T03:32:58.397Z,8.61
2022-11-16T03:35:31.192Z,8.62
2022-11-16T03:38:02.318Z,8.61
2022-11-16T03:40:34.814Z,8.60
2022-11-16T03:43:04.398Z,8.57
2022-11-16T03:45:35.234Z,8.58
2022-11-16T03:48:08.763Z,8.56
2022-11-16T03:50:39.229Z,8.55
2022-11-16T03:53:09.696Z,8.56
2022-11-16T03:55:41.185Z,8.56
2022-11-16T03:58:18.517Z,8.56
2022-11-16T04:00:49.134Z,8.57
2022-11-16T04:03:19.659Z,8.60
2022-11-16T04:06:08.798Z,8.60
2022-11-16T04:08:57.624Z,8.62
2022-11-16T04:11:45.548Z,8.65
2022-11-16T04:14:36.698Z,8.66
2022-11-16T04:17:27.336Z,8.69
2022-11-16T04:20:15.046Z,8.70
2022-11-16T04:23:07.222Z,8.69
2022-11-16T04:25:39.015Z,8.68
2022-11-16T04:28:17.672Z,8.69
2022-11-16T04:31:11.070Z,8.69
2022-11-16T04:34:00.176Z,8.73
2022-11-16T04:36:48.864Z,8.76
2022-11-16T04:39:19.792Z,8.79
2022-11-16T04:42:19.009Z,8.81
2022-11-16T04:45:08.496Z,8.82
2022-11-16T04:47:44.052Z,8.85
2022-11-16T04:50:14.998Z,8.85
2022-11-16T04:52:45.855Z,8.85
2022-11-16T04:55:16.712Z,8.83
2022-11-16T04:57:47.931Z,8.84
2022-11-16T05:00:19.888Z,8.83
2022-11-16T05:02:50.813Z,8.82
2022-11-16T05:05:21.435Z,8.80
2022-11-16T05:07:52.180Z,8.81
2022-11-16T05:10:27.114Z,8.82
2022-11-16T05:12:58.481Z,8.82
2022-11-16T05:15:29.148Z,8.81
2022-11-16T05:18:00.219Z,8.83
2022-11-16T05:20:48.023Z,8.85
2022-11-16T05:23:47.580Z,8.84
2022-11-16T05:26:18.949Z,8.87
2022-11-16T05:28:49.464Z,8.89
2022-11-16T05:31:20.005Z,8.89
2022-11-16T05:33:51.523Z,8.86
2022-11-16T05:36:22.444Z,8.84
2022-11-16T05:38:56.227Z,8.82
2022-11-16T05:41:27.777Z,8.83
2022-11-16T05:43:58.230Z,8.82
2022-11-16T05:46:29.449Z,8.82
2022-11-16T05:49:01.078Z,8.83
2022-11-16T05:51:31.455Z,8.81
2022-11-16T05:54:02.083Z,8.79
2022-11-16T05:56:33.070Z,8.81
2022-11-16T05:59:03.518Z,8.81
2022-11-16T06:01:33.942Z,8.80
2022-11-16T06:04:06.807Z,8.79
2022-11-16T06:06:37.792Z,8.80
2022-11-16T06:09:08.594Z,8.81
2022-11-16T06:11:40.172Z,8.83
2022-11-16T06:14:10.616Z,8.85
2022-11-16T06:16:41.020Z,8.85
2022-11-16T06:19:12.244Z,8.86
2022-11-16T06:21:42.803Z,8.84
2022-11-16T06:24:18.176Z,8.84
2022-11-16T06:26:49.650Z,8.84
2022-11-16T06:29:20.176Z,8.83
2022-11-16T06:31:50.549Z,8.82
2022-11-16T06:34:21.245Z,8.82
2022-11-16T06:36:51.911Z,8.84
2022-11-16T06:39:23.046Z,8.85
2022-11-16T06:41:53.510Z,8.86
2022-11-16T06:44:24.089Z,8.87
2022-11-16T06:47:01.154Z,8.88
2022-11-16T06:49:32.779Z,8.88
2022-11-16T06:52:03.684Z,8.86
2022-11-16T06:54:34.627Z,8.82
2022-11-16T06:57:05.125Z,8.79
2022-11-16T06:59:36.237Z,8.80
2022-11-16T07:02:07.271Z,8.80
2022-11-16T07:04:38.617Z,8.80
2022-11-16T07:07:09.660Z,8.81
2022-11-16T07:09:40.583Z,8.81
2022-11-16T07:12:11.459Z,8.80
2022-11-16T07:14:42.820Z,8.80
2022-11-16T07:17:13.616Z,8.80
2022-11-16T07:19:44.051Z,8.80
2022-11-16T07:22:14.453Z,8.81
2022-11-16T07:24:46.893Z,8.81
2022-11-16T07:27:17.329Z,8.84
2022-11-16T07:29:49.096Z,8.86
2022-11-16T07:32:39.744Z,8.89
2022-11-16T07:35:30.452Z,8.88
2022-11-16T07:38:00.832Z,8.87
2022-11-16T07:40:31.248Z,8.88
2022-11-16T07:43:01.697Z,8.91
2022-11-16T07:45:40.987Z,8.93
2022-11-16T07:48:11.876Z,8.96
2022-11-16T07:51:03.696Z,9.01
2022-11-16T07:53:35.059Z,9.08
2022-11-16T07:56:06.797Z,9.21
2022-11-16T07:58:38.236Z,9.34
2022-11-16T08:01:11.786Z,9.51
2022-11-16T08:03:43.606Z,9.86
2022-11-16T08:06:17.495Z,10.09
2022-11-16T08:08:47.928Z,10.51
2022-11-16T08:11:18.953Z,10.92
2022-11-16T08:13:49.391Z,11.15
2022-11-16T08:16:22.084Z,11.22
2022-11-16T08:18:54.416Z,11.09
2022-11-16T08:21:25.468Z,10.97
2022-11-16T08:23:58.721Z,10.92
2022-11-16T08:26:30.041Z,10.96
2022-11-16T08:29:05.085Z,10.91
2022-11-16T08:31:38.143Z,10.78
2022-11-16T08:34:11.642Z,10.64
2022-11-16T08:36:44.854Z,10.50
2022-11-16T08:39:15.808Z,10.37
2022-11-16T08:41:46.716Z,10.27
2022-11-16T08:44:18.467Z,10.16
2022-11-16T08:46:51.663Z,10.14
2022-11-16T08:49:34.170Z,10.38
2022-11-16T08:52:04.671Z,10.83
2022-11-16T08:54:35.412Z,11.36
2022-11-16T08:57:06.034Z,11.97
2022-11-16T08:59:39.180Z,12.38
2022-11-16T09:02:14.409Z,12.26
2022-11-16T09:04:44.876Z,11.99
2022-11-16T09:07:17.441Z,11.73
2022-11-16T09:09:49.122Z,11.52
2022-11-16T09:12:20.517Z,11.38
2022-11-16T09:14:53.820Z,11.36
2022-11-16T09:17:25.564Z,11.56
2022-11-16T09:19:57.539Z,11.82
2022-11-16T09:22:29.408Z,12.08
2022-11-16T09:25:01.742Z,12.78
2022-11-16T09:27:33.428Z,13.24
2022-11-16T09:30:05.538Z,13.56
2022-11-16T09:32:38.434Z,13.62
2022-11-16T09:35:11.569Z,13.64
2022-11-16T09:37:44.451Z,13.38
2022-11-16T09:40:16.053Z,13.13
2022-11-16T09:42:59.441Z,12.92
2022-11-16T09:45:38.003Z,12.83
2022-11-16T09:48:12.517Z,12.89
2022-11-16T09:50:49.116Z,13.02
2022-11-16T09:53:36.863Z,13.30
2022-11-16T09:56:13.704Z,13.34
2022-11-16T10:06:20.996Z,12.66
2022-11-16T10:08:52.540Z,12.35
2022-11-16T10:11:44.044Z,12.11
2022-11-16T10:14:44.559Z,11.90
2022-11-16T10:17:22.593Z,11.78
2022-11-16T10:19:56.322Z,11.73
2022-11-16T10:22:41.925Z,11.73
2022-11-16T10:25:17.987Z,11.67
2022-11-16T10:27:57.196Z,11.61
2022-11-16T10:30:27.687Z,11.61
2022-11-16T10:33:02.844Z,11.56
2022-11-16T10:35:39.516Z,11.53
2022-11-16T10:38:14.373Z,11.57
2022-11-16T10:40:48.668Z,11.64
2022-11-16T10:43:21.268Z,11.64
2022-11-16T10:45:55.855Z,11.63
2022-11-16T10:48:36.950Z,11.65
2022-11-16T10:51:08.164Z,11.68
2022-11-16T10:53:40.053Z,11.65
2022-11-16T10:56:23.913Z,11.53
2022-11-16T10:58:56.861Z,11.32
2022-11-16T11:01:37.251Z,11.15
2022-11-16T11:04:19.298Z,11.01
2022-11-16T11:06:52.259Z,10.90
2022-11-16T11:09:28.920Z,10.76
2022-11-16T11:12:20.265Z,10.60
2022-11-16T11:15:25.964Z,10.54
2022-11-16T11:18:15.030Z,10.54
2022-11-16T11:20:47.116Z,10.57
2022-11-16T11:23:20.392Z,10.58
2022-11-16T11:25:55.966Z,10.59
2022-11-16T11:28:28.625Z,10.66
2022-11-16T11:31:01.872Z,10.78
2022-11-16T11:33:34.720Z,10.94
2022-11-16T11:36:10.643Z,11.09
2022-11-16T11:38:57.650Z,11.21
2022-11-16T11:41:34.660Z,11.28
2022-11-16T11:44:06.999Z,11.19
2022-11-16T11:47:28.551Z,11.04
2022-11-16T11:49:33.820Z,10.82
2022-11-16T11:52:08.322Z,10.63
2022-11-16T11:54:45.857Z,10.58
2022-11-16T11:57:20.545Z,10.60
2022-11-16T11:59:52.266Z,10.57
2022-11-16T12:02:33.811Z,10.56
2022-11-16T12:05:39.802Z,10.54
2022-11-16T12:08:23.166Z,10.47
2022-11-16T12:10:56.346Z,10.40
2022-11-16T12:13:49.137Z,10.46
2022-11-16T12:16:23.252Z,10.87
2022-11-16T12:19:17.388Z,11.52
2022-11-16T12:21:54.601Z,11.99
2022-11-16T12:24:33.743Z,12.62
2022-11-16T12:27:13.559Z,13.17
2022-11-16T12:29:51.840Z,13.16
2022-11-16T12:32:40.943Z,13.15
2022-11-16T12:35:23.576Z,13.22
2022-11-16T12:38:00.338Z,12.98
2022-11-16T12:40:45.105Z,12.74
2022-11-16T12:43:20.320Z,12.45
2022-11-16T12:46:02.233Z,12.13
2022-11-16T12:48:59.297Z,11.84
2022-11-16T12:51:39.897Z,11.55
2022-11-16T12:54:30.147Z,11.31
2022-11-16T12:57:05.282Z,11.13
2022-11-16T12:59:49.534Z,11.04
2022-11-16T13:02:33.000Z,11.07
2022-11-16T13:05:06.290Z,11.43
2022-11-16T13:07:42.392Z,11.75
2022-11-16T13:10:17.557Z,11.90
2022-11-16T13:12:52.710Z,12.12
2022-11-16T13:15:33.038Z,12.39
2022-11-16T13:18:06.636Z,12.57
2022-11-16T13:20:41.565Z,12.65
2022-11-16T13:23:15.078Z,12.54
2022-11-16T13:25:50.166Z,12.37
2022-11-16T13:28:32.103Z,12.33
2022-11-16T13:31:07.477Z,12.25
2022-11-16T13:33:50.667Z,12.05
2022-11-16T13:36:46.292Z,11.85
2022-11-16T13:39:22.373Z,11.61
2022-11-16T13:42:05.874Z,11.46
2022-11-16T13:44:37.067Z,11.35
2022-11-16T13:47:18.426Z,11.23
2022-11-16T13:49:53.473Z,11.12
2022-11-16T13:52:31.585Z,11.00
2022-11-16T13:55:23.289Z,10.95
2022-11-16T13:57:54.875Z,10.90
2022-11-16T14:00:28.965Z,10.86
2022-11-16T14:03:30.088Z,10.81
2022-11-16T14:06:01.129Z,10.74
2022-11-16T14:08:52.164Z,10.66
2022-11-16T14:11:36.825Z,10.57
2022-11-16T14:14:10.035Z,10.49
2022-11-16T14:16:48.690Z,10.41
2022-11-16T14:19:55.163Z,10.31
2022-11-16T14:22:40.564Z,10.24
2022-11-16T14:25:18.060Z,10.17
2022-11-16T14:27:54.254Z,10.15
2022-11-16T14:30:26.010Z,10.16
2022-11-16T14:32:57.769Z,10.20
2022-11-16T14:35:35.018Z,10.21
2022-11-16T14:38:07.575Z,10.19
2022-11-16T14:40:46.808Z,10.11
2022-11-16T14:43:20.735Z,10.05
2022-11-16T14:45:55.971Z,9.99
2022-11-16T14:48:27.668Z,9.94
2022-11-16T14:51:08.828Z,9.91
2022-11-16T14:53:43.167Z,9.89
2022-11-16T14:56:16.079Z,9.85
2022-11-16T14:58:52.914Z,9.83
2022-11-16T15:01:25.909Z,9.80
2022-11-16T15:04:02.307Z,9.76
2022-11-16T15:06:36.774Z,9.76
2022-11-16T15:09:07.881Z,9.78
2022-11-16T15:11:58.450Z,9.80
2022-11-16T15:14:31.336Z,9.80
2022-11-16T15:17:00.820Z,9.79
2022-11-16T15:19:32.907Z,9.76
2022-11-16T15:22:04.347Z,9.72
2022-11-16T15:24:36.052Z,9.68
2022-11-16T15:27:16.650Z,9.65
2022-11-16T15:29:47.283Z,9.61
2022-11-16T15:32:18.934Z,9.51
2022-11-16T15:34:52.830Z,9.42
2022-11-16T15:37:31.038Z,9.34
2022-11-16T15:40:03.268Z,9.28
2022-11-16T15:42:33.843Z,9.26
2022-11-16T15:45:11.560Z,9.24
2022-11-16T15:47:46.917Z,9.21
2022-11-16T15:50:19.591Z,9.17
2022-11-16T15:52:54.972Z,9.12
2022-11-16T15:55:34.338Z,9.05
2022-11-16T15:58:06.996Z,9.03
2022-11-16T16:00:39.325Z,9.00
2022-11-16T16:03:20.539Z,8.99
2022-11-16T16:05:51.370Z,8.97
2022-11-16T16:08:33.125Z,8.94
2022-11-16T16:11:12.392Z,8.89
2022-11-16T16:13:44.824Z,8.86
2022-11-16T16:16:24.773Z,8.83
2022-11-16T16:18:56.798Z,8.82
2022-11-16T16:21:27.657Z,8.81
2022-11-16T16:23:58.494Z,8.79
2022-11-16T16:26:28.961Z,8.73
2022-11-16T16:28:59.433Z,8.70
2022-11-16T16:31:30.487Z,8.67
2022-11-16T16:34:01.080Z,8.62
2022-11-16T16:36:31.561Z,8.57
2022-11-16T16:39:01.942Z,8.50
2022-11-16T16:41:32.435Z,8.42
2022-11-16T16:44:02.896Z,8.34
2022-11-16T16:46:33.270Z,8.30
2022-11-16T16:49:03.739Z,8.30
2022-11-16T16:51:34.089Z,8.31
2022-11-16T16:54:04.574Z,8.33
2022-11-16T16:56:34.919Z,8.33
2022-11-16T16:59:05.281Z,8.33
2022-11-16T17:01:35.599Z,8.32
2022-11-16T17:04:06.269Z,8.32
2022-11-16T17:06:36.864Z,8.33
2022-11-16T17:09:07.300Z,8.32
2022-11-16T17:11:37.713Z,8.31
2022-11-16T17:14:08.143Z,8.31
2022-11-16T17:16:38.506Z,8.31
2022-11-16T17:19:08.940Z,8.34
2022-11-16T17:21:39.275Z,8.37
2022-11-16T17:24:10.036Z,8.40
2022-11-16T17:26:40.614Z,8.43
2022-11-16T17:29:11.103Z,8.48
2022-11-16T17:31:45.065Z,8.51
2022-11-16T17:34:15.551Z,8.56
2022-11-16T17:36:45.961Z,8.60
2022-11-16T17:39:16.695Z,8.63
2022-11-16T17:41:47.162Z,8.65
2022-11-16T17:44:21.829Z,8.65
2022-11-16T17:46:52.561Z,8.63
2022-11-16T17:49:22.948Z,8.59
2022-11-16T17:51:53.480Z,8.53
2022-11-16T17:54:23.999Z,8.47
2022-11-16T17:56:54.381Z,8.42
2022-11-16T17:59:29.242Z,8.38
2022-11-16T18:02:00.298Z,8.30
2022-11-16T18:04:30.706Z,8.25
2022-11-16T18:07:01.372Z,8.23
2022-11-16T18:09:31.799Z,8.21
2022-11-16T18:12:02.206Z,8.20
2022-11-16T18:14:32.618Z,8.18
2022-11-16T18:17:03.115Z,8.18
2022-11-16T18:19:33.511Z,8.18
2022-11-16T18:22:03.809Z,8.19
2022-11-16T18:24:34.276Z,8.21
2022-11-16T18:27:04.793Z,8.24
2022-11-16T18:29:36.770Z,8.28
2022-11-16T18:32:07.231Z,8.31
2022-11-16T18:34:37.668Z,8.35
2022-11-16T18:37:08.180Z,8.40
2022-11-16T18:39:38.510Z,8.42
2022-11-16T18:42:08.977Z,8.46
2022-11-16T18:44:39.446Z,8.49
2022-11-16T18:47:09.742Z,8.54
2022-11-16T18:49:40.114Z,8.56
2022-11-16T18:52:10.716Z,8.57
2022-11-16T18:54:41.236Z,8.58
2022-11-16T18:57:11.923Z,8.62
2022-11-16T18:59:42.332Z,8.64
2022-11-16T19:02:13.991Z,8.67
2022-11-16T19:04:44.315Z,8.68
2022-11-16T19:07:14.747Z,8.68
2022-11-16T19:09:45.344Z,8.69
2022-11-16T19:12:15.683Z,8.71
2022-11-16T19:14:46.112Z,8.71
2022-11-16T19:17:16.517Z,8.70
2022-11-16T19:19:46.940Z,8.69
2022-11-16T19:22:17.370Z,8.68
2022-11-16T19:24:47.734Z,8.68
2022-11-16T19:27:18.077Z,8.66
2022-11-16T19:29:48.472Z,8.65
2022-11-16T19:32:18.869Z,8.63
2022-11-16T19:34:49.202Z,8.62
2022-11-16T19:37:19.766Z,8.62
2022-11-16T19:39:50.205Z,8.62
2022-11-16T19:42:20.610Z,8.60
2022-11-16T19:44:50.972Z,8.58
2022-11-16T19:47:23.037Z,8.56
2022-11-16T19:49:53.585Z,8.55
2022-11-16T19:52:24.028Z,8.53
2022-11-16T19:54:54.513Z,8.51
2022-11-16T19:57:24.868Z,8.49
2022-11-16T19:59:56.216Z,8.50
2022-11-16T20:02:26.518Z,8.50
2022-11-16T20:04:56.882Z,8.51
2022-11-16T20:07:27.372Z,8.49
2022-11-16T20:09:58.386Z,8.47
2022-11-16T20:12:29.282Z,8.45
2022-11-16T20:15:01.296Z,8.44
2022-11-16T20:17:32.137Z,8.42
2022-11-16T20:20:02.471Z,8.39
2022-11-16T20:22:32.809Z,8.33
2022-11-16T20:25:03.302Z,8.27
2022-11-16T20:27:33.680Z,8.22
2022-11-16T20:30:09.344Z,8.19
2022-11-16T20:32:40.178Z,8.16
2022-11-16T20:35:13.763Z,8.14
2022-11-16T20:37:48.704Z,8.12
2022-11-16T20:40:19.343Z,8.07
2022-11-16T20:42:50.966Z,8.05
2022-11-16T20:45:21.345Z,8.02
2022-11-16T20:47:51.702Z,8.00
2022-11-16T20:50:22.502Z,7.95
2022-11-16T20:52:53.044Z,7.92
2022-11-16T20:55:24.041Z,7.90
2022-11-16T20:57:55.353Z,7.88
2022-11-16T21:00:26.041Z,7.86
2022-11-16T21:02:56.429Z,7.84
2022-11-16T21:05:26.808Z,7.82
2022-11-16T21:07:57.204Z,7.81
2022-11-16T21:10:28.619Z,7.82
2022-11-16T21:13:16.662Z,7.82
2022-11-16T21:15:47.155Z,7.79
2022-11-16T21:18:17.503Z,7.75
2022-11-16T21:20:48.680Z,7.70
2022-11-16T21:23:19.475Z,7.68
2022-11-16T21:25:50.076Z,7.67
2022-11-16T21:28:25.318Z,7.67
2022-11-16T21:31:01.269Z,7.66
2022-11-16T21:33:32.314Z,7.65
2022-11-16T21:36:07.342Z,7.63
2022-11-16T21:38:37.732Z,7.64
2022-11-16T21:41:08.413Z,7.66
2022-11-16T21:43:40.500Z,7.67
2022-11-16T21:46:13.225Z,7.67
2022-11-16T21:48:43.619Z,7.67
2022-11-16T21:51:15.442Z,7.66
2022-11-16T21:53:46.005Z,7.68
2022-11-16T21:56:18.351Z,7.70
2022-11-16T21:58:50.364Z,7.71
2022-11-16T22:01:21.393Z,7.70
2022-11-16T22:04:06.004Z,7.69
2022-11-16T22:06:54.116Z,7.68
2022-11-16T22:09:24.617Z,7.71
2022-11-16T22:11:55.328Z,7.73
2022-11-16T22:14:26.031Z,7.73
2022-11-16T22:16:56.738Z,7.74
2022-11-16T22:19:27.266Z,7.74
2022-11-16T22:21:59.164Z,7.73
2022-11-16T22:24:29.904Z,7.74
2022-11-16T22:27:00.543Z,7.76
2022-11-16T22:29:31.194Z,7.76
2022-11-16T22:32:01.688Z,7.77
2022-11-16T22:34:32.403Z,7.76
2022-11-16T22:37:03.121Z,7.74
2022-11-16T22:39:33.731Z,7.74
2022-11-16T22:42:04.488Z,7.76
2022-11-16T22:44:35.126Z,7.78
2022-11-16T22:47:05.804Z,7.79
2022-11-16T22:49:36.359Z,7.79
2022-11-16T22:52:07.366Z,7.79
2022-11-16T22:54:39.033Z,7.79
2022-11-16T22:57:09.717Z,7.82
2022-11-16T22:59:41.080Z,7.83
2022-11-16T23:02:13.739Z,7.83
2022-11-16T23:04:45.976Z,7.82
2022-11-16T23:07:18.459Z,7.80
2022-11-16T23:09:51.575Z,7.80
2022-11-16T23:12:41.219Z,7.82
2022-11-16T23:15:31.905Z,7.83
2022-11-16T23:18:03.716Z,7.81
2022-11-16T23:20:54.470Z,7.81
2022-11-16T23:23:42.775Z,7.79
2022-11-16T23:26:37.850Z,7.79
2022-11-16T23:29:11.291Z,7.79
2022-11-16T23:31:43.786Z,7.79
2022-11-16T23:34:15.762Z,7.79
2022-11-16T23:36:47.875Z,7.78
2022-11-16T23:39:21.329Z,7.74
2022-11-16T23:42:10.343Z,7.71
2022-11-16T23:44:42.194Z,7.71
2022-11-16T23:47:13.936Z,7.71
2022-11-16T23:49:46.518Z,7.71
2022-11-16T23:52:18.788Z,7.70
2022-11-16T23:54:50.362Z,7.68
2022-11-16T23:57:23.919Z,7.66
